Time;durP1;ratioP1;P1;durP2;ratioP2;P2;SDS_P1;SDS_P2;PMS_P1;PMS_P2;Temp;Humidity;BMP_temperature;BMP_pressure;BME280_temperature;BME280_humidity;BME280_pressure;Samples;Min_cycle;Max_cycle;Signal;HPM_P1;HPM_P2
2023/05/30 00:00:46;;;;;;;10.10;2.78;;;14.20;99.60;;;;;;4159518;28;20079;-72
2023/05/30 00:02:46;;;;;;;9.85;2.60;;;14.20;99.70;;;;;;4162039;28;20112;-74
2023/05/30 00:04:47;;;;;;;12.27;2.40;;;14.20;99.60;;;;;;4157556;28;20034;-70
2023/05/30 00:06:48;;;;;;;8.27;2.85;;;14.20;99.90;;;;;;4161515;28;20095;-73
2023/05/30 00:08:49;;;;;;;7.45;2.03;;;14.20;99.90;;;;;;4161133;28;20026;-74
2023/05/30 00:10:49;;;;;;;9.50;2.20;;;14.10;99.90;;;;;;4160870;28;20028;-74
2023/05/30 00:12:50;;;;;;;7.82;1.90;;;14.10;99.90;;;;;;4159508;28;20060;-75
2023/05/30 00:14:50;;;;;;;12.48;2.63;;;14.10;99.90;;;;;;4165441;28;20049;-75
2023/05/30 00:16:51;;;;;;;7.45;2.25;;;14.00;99.90;;;;;;4163727;28;20026;-75
2023/05/30 00:18:56;;;;;;;10.50;2.42;;;14.10;99.90;;;;;;4162224;28;20578;-75
2023/05/30 00:20:56;;;;;;;9.93;2.95;;;14.10;99.90;;;;;;4161052;28;20061;-75
2023/05/30 00:23:00;;;;;;;9.98;2.22;;;13.90;99.90;;;;;;4162325;28;20048;-75
2023/05/30 00:25:01;;;;;;;10.25;2.40;;;14.00;99.90;;;;;;4168095;28;20515;-75
2023/05/30 00:27:02;;;;;;;4.30;1.65;;;14.00;99.90;;;;;;4160624;28;20057;-75
2023/05/30 00:29:03;;;;;;;8.73;2.38;;;13.90;99.90;;;;;;4162921;28;20079;-75
2023/05/30 00:31:05;;;;;;;7.35;2.08;;;13.90;99.90;;;;;;4163385;28;20124;-75
2023/05/30 00:33:05;;;;;;;10.20;2.42;;;14.00;99.90;;;;;;4162144;28;20034;-75
2023/05/30 00:35:06;;;;;;;9.90;3.03;;;14.00;99.90;;;;;;4164227;28;20033;-75
2023/05/30 00:37:08;;;;;;;5.68;2.20;;;13.90;99.90;;;;;;4161120;28;20112;-75
2023/05/30 00:39:09;;;;;;;7.30;2.17;;;13.90;99.90;;;;;;4162250;28;20159;-74
2023/05/30 00:41:10;;;;;;;11.70;2.78;;;13.80;99.90;;;;;;4160512;28;20291;-75
2023/05/30 00:43:11;;;;;;;6.82;2.33;;;13.70;99.90;;;;;;4162252;28;20067;-75
2023/05/30 00:45:11;;;;;;;9.88;2.60;;;13.80;99.90;;;;;;4159901;28;20037;-74
2023/05/30 00:47:13;;;;;;;8.48;2.33;;;13.70;99.90;;;;;;4161297;28;20045;-75
2023/05/30 00:49:14;;;;;;;6.75;2.30;;;13.80;99.90;;;;;;4162237;28;20041;-73
2023/05/30 00:51:16;;;;;;;7.03;2.08;;;13.80;99.90;;;;;;4160417;28;20079;-74
2023/05/30 00:53:19;;;;;;;11.93;2.65;;;13.70;99.90;;;;;;4160102;28;20037;-74
2023/05/30 00:55:20;;;;;;;7.00;1.98;;;13.80;99.90;;;;;;4160450;28;20025;-69
2023/05/30 00:57:21;;;;;;;12.18;2.35;;;13.80;99.90;;;;;;4161256;28;20105;-75
2023/05/30 00:59:22;;;;;;;7.35;2.25;;;13.80;99.90;;;;;;4160199;28;20038;-75
2023/05/30 01:01:24;;;;;;;6.30;1.98;;;13.80;99.90;;;;;;4161483;28;20125;-75
2023/05/30 01:03:32;;;;;;;7.70;2.60;;;13.70;99.90;;;;;;4157518;28;20087;-75
2023/05/30 01:05:33;;;;;;;10.85;2.40;;;13.70;99.90;;;;;;4156358;28;20097;-75
2023/05/30 01:07:33;;;;;;;8.70;2.38;;;13.80;99.90;;;;;;4161134;28;21225;-75
2023/05/30 01:09:34;;;;;;;5.72;2.10;;;13.80;99.90;;;;;;4160787;28;20088;-75
2023/05/30 01:12:01;;;;;;;8.25;2.28;;;13.70;99.90;;;;;;4159331;28;20472;-75
2023/05/30 01:14:09;;;;;;;8.50;2.53;;;13.80;99.90;;;;;;4159627;28;20065;-75
2023/05/30 01:16:18;;;;;;;11.30;2.55;;;13.80;99.90;;;;;;4158533;28;20061;-75
2023/05/30 01:18:26;;;;;;;8.55;2.38;;;13.80;99.90;;;;;;4159574;28;20484;-75
2023/05/30 01:20:27;;;;;;;6.97;2.30;;;13.80;99.90;;;;;;4155717;28;20037;-75
2023/05/30 01:22:52;;;;;;;6.22;2.00;;;13.70;99.90;;;;;;4160119;28;20221;-75
2023/05/30 01:25:06;;;;;;;8.75;2.53;;;13.70;99.90;;;;;;4160488;28;20065;-75
2023/05/30 01:27:18;;;;;;;11.75;2.53;;;13.70;99.90;;;;;;4160391;28;20040;-75
2023/05/30 01:29:21;;;;;;;8.90;2.38;;;13.70;99.90;;;;;;4158582;28;20173;-75
2023/05/30 01:31:23;;;;;;;6.88;2.28;;;13.60;99.90;;;;;;4153818;28;20030;-74
2023/05/30 01:33:26;;;;;;;6.43;2.40;;;13.60;99.90;;;;;;4161053;28;20029;-75
2023/05/30 01:35:26;;;;;;;7.78;2.42;;;13.60;99.90;;;;;;4162175;28;20049;-74
2023/05/30 01:37:27;;;;;;;7.13;2.25;;;13.60;99.90;;;;;;4160943;28;20099;-74
2023/05/30 01:39:27;;;;;;;8.63;2.45;;;13.60;99.90;;;;;;4160474;28;20037;-74
2023/05/30 01:41:39;;;;;;;8.63;2.30;;;13.60;99.90;;;;;;4163985;28;20021;-74
2023/05/30 01:43:49;;;;;;;7.18;2.35;;;13.50;99.90;;;;;;4159744;28;20029;-76
2023/05/30 01:45:58;;;;;;;7.28;2.25;;;13.50;99.90;;;;;;4159978;28;20045;-75
2023/05/30 01:48:06;;;;;;;7.65;2.22;;;13.40;99.90;;;;;;4160543;28;20057;-75
2023/05/30 01:50:17;;;;;;;8.80;2.42;;;13.40;99.90;;;;;;4160489;28;20393;-74
2023/05/30 01:52:21;;;;;;;7.07;2.60;;;13.40;99.90;;;;;;4160497;28;20428;-72
2023/05/30 01:54:24;;;;;;;9.43;2.17;;;13.40;99.90;;;;;;4157994;28;20030;-70
2023/05/30 01:56:27;;;;;;;7.43;1.98;;;13.40;99.90;;;;;;4160085;28;20040;-75
2023/05/30 01:58:31;;;;;;;8.88;2.58;;;13.40;99.90;;;;;;4158605;28;20030;-75
2023/05/30 02:00:31;;;;;;;5.95;2.28;;;13.40;99.90;;;;;;4161233;28;20600;-75
2023/05/30 02:02:32;;;;;;;9.50;2.60;;;13.40;99.90;;;;;;4159759;28;20038;-75
2023/05/30 02:04:33;;;;;;;8.07;2.35;;;13.40;99.90;;;;;;4160584;28;20029;-74
2023/05/30 02:06:33;;;;;;;5.78;2.33;;;13.40;99.90;;;;;;4159072;28;20045;-75
2023/05/30 02:08:34;;;;;;;10.02;2.28;;;13.40;99.90;;;;;;4161889;28;20554;-75
2023/05/30 02:10:35;;;;;;;7.95;2.38;;;13.40;99.90;;;;;;4159501;28;20091;-75
2023/05/30 02:12:35;;;;;;;9.32;2.70;;;13.40;99.90;;;;;;4160770;28;20040;-75
2023/05/30 02:14:36;;;;;;;11.05;2.58;;;13.40;99.90;;;;;;4161946;28;20032;-75
2023/05/30 02:16:36;;;;;;;6.72;2.53;;;13.40;99.90;;;;;;4154843;28;20057;-75
2023/05/30 02:18:40;;;;;;;10.43;2.35;;;13.40;99.90;;;;;;4160376;28;20044;-75
2023/05/30 02:20:40;;;;;;;8.05;2.20;;;13.30;99.90;;;;;;4159277;28;20091;-75
2023/05/30 02:22:41;;;;;;;10.57;2.50;;;13.30;99.90;;;;;;4162479;28;20033;-74
2023/05/30 02:24:41;;;;;;;7.82;2.25;;;13.40;99.90;;;;;;4160110;28;20041;-75
2023/05/30 02:26:42;;;;;;;7.90;2.45;;;13.30;99.90;;;;;;4158778;28;20038;-75
2023/05/30 02:28:43;;;;;;;7.13;2.17;;;13.30;99.90;;;;;;4158781;28;20190;-75
2023/05/30 02:30:43;;;;;;;10.98;2.60;;;13.30;99.90;;;;;;4162587;28;20043;-74
2023/05/30 02:32:44;;;;;;;7.07;2.35;;;13.30;99.90;;;;;;4159468;28;20045;-75
2023/05/30 02:34:44;;;;;;;9.55;2.17;;;13.30;99.90;;;;;;4161711;28;20116;-75
2023/05/30 02:36:45;;;;;;;8.13;2.92;;;13.30;99.90;;;;;;4162600;28;20060;-75
2023/05/30 02:38:46;;;;;;;9.13;2.28;;;13.30;99.90;;;;;;4163862;28;20025;-75
2023/05/30 02:40:46;;;;;;;8.75;2.70;;;13.30;99.90;;;;;;4161448;28;20045;-75
2023/05/30 02:42:47;;;;;;;7.75;2.20;;;13.30;99.90;;;;;;4163461;28;20052;-75
2023/05/30 02:44:48;;;;;;;9.55;2.40;;;13.30;99.90;;;;;;4164684;28;20037;-71
2023/05/30 02:46:48;;;;;;;8.23;2.60;;;13.20;99.90;;;;;;4165359;28;20034;-74
2023/05/30 02:48:49;;;;;;;5.03;2.00;;;13.20;99.90;;;;;;4163242;28;20060;-74
2023/05/30 02:50:50;;;;;;;7.18;2.10;;;13.20;99.90;;;;;;4160394;28;20517;-75
2023/05/30 02:52:50;;;;;;;8.25;2.30;;;13.20;99.90;;;;;;4162856;28;20040;-75
2023/05/30 02:54:51;;;;;;;8.13;2.38;;;13.20;99.90;;;;;;4163369;28;20037;-75
2023/05/30 02:56:51;;;;;;;10.02;2.63;;;13.20;99.90;;;;;;4161274;28;20057;-75
2023/05/30 02:58:53;;;;;;;11.68;2.30;;;13.20;99.90;;;;;;4161676;28;20038;-75
2023/05/30 03:00:54;;;;;;;11.60;3.00;;;13.10;99.90;;;;;;4166065;28;20528;-76
2023/05/30 03:02:55;;;;;;;5.60;2.20;;;13.10;99.90;;;;;;4164442;28;20155;-75
2023/05/30 03:04:56;;;;;;;8.98;2.33;;;13.10;99.90;;;;;;4162178;28;20030;-75
2023/05/30 03:06:57;;;;;;;16.67;3.03;;;13.00;99.90;;;;;;4161862;28;20048;-75
2023/05/30 03:09:00;;;;;;;10.63;2.92;;;13.00;99.90;;;;;;4154456;28;20492;-75
2023/05/30 03:11:00;;;;;;;7.60;2.85;;;13.00;99.90;;;;;;4161753;28;20060;-75
2023/05/30 03:13:01;;;;;;;10.18;3.35;;;13.00;99.90;;;;;;4162722;28;20037;-74
2023/05/30 03:15:05;;;;;;;11.23;2.83;;;13.00;99.90;;;;;;4159222;28;20133;-76
2023/05/30 03:17:06;;;;;;;11.55;2.88;;;13.00;99.90;;;;;;4163158;28;20120;-73
2023/05/30 03:19:07;;;;;;;7.22;2.50;;;13.00;99.90;;;;;;4158197;28;20100;-75
2023/05/30 03:21:08;;;;;;;8.93;2.67;;;13.00;99.90;;;;;;4161758;28;20041;-75
2023/05/30 03:23:09;;;;;;;6.55;2.30;;;13.00;99.90;;;;;;4163173;28;20049;-75
2023/05/30 03:25:12;;;;;;;16.10;3.55;;;12.90;99.90;;;;;;4162568;28;20033;-74
2023/05/30 03:27:12;;;;;;;13.07;3.15;;;12.90;99.90;;;;;;4161919;28;20038;-76
2023/05/30 03:29:13;;;;;;;11.30;2.58;;;12.90;99.90;;;;;;4161132;28;20045;-75
2023/05/30 03:31:13;;;;;;;12.50;2.95;;;12.90;99.90;;;;;;4163088;28;20045;-75
2023/05/30 03:33:14;;;;;;;9.90;2.78;;;12.90;99.90;;;;;;4163049;28;20030;-74
2023/05/30 03:35:16;;;;;;;13.32;2.90;;;12.90;99.90;;;;;;4160255;28;20056;-75
2023/05/30 03:37:16;;;;;;;5.22;2.15;;;12.90;99.90;;;;;;4163989;28;20489;-75
2023/05/30 03:39:17;;;;;;;8.52;3.10;;;12.90;99.90;;;;;;4162953;28;20029;-74
2023/05/30 03:41:18;;;;;;;10.85;3.20;;;12.90;99.90;;;;;;4160724;28;20067;-76
2023/05/30 03:43:19;;;;;;;11.27;2.97;;;12.90;99.90;;;;;;4161726;28;20025;-71
2023/05/30 03:45:19;;;;;;;11.90;2.97;;;12.90;99.90;;;;;;4160777;28;20061;-75
2023/05/30 03:47:20;;;;;;;12.32;3.10;;;12.90;99.90;;;;;;4161165;28;20034;-75
2023/05/30 03:49:21;;;;;;;11.25;2.65;;;12.90;99.90;;;;;;4162544;28;20095;-75
2023/05/30 03:51:21;;;;;;;11.35;3.10;;;12.90;99.90;;;;;;4161067;28;20038;-76
2023/05/30 03:53:22;;;;;;;9.82;2.53;;;12.90;99.90;;;;;;4158483;28;20476;-75
2023/05/30 03:55:22;;;;;;;7.97;2.97;;;12.90;99.90;;;;;;4159667;28;20323;-76
2023/05/30 03:57:23;;;;;;;14.05;3.10;;;12.80;99.90;;;;;;4159824;28;20071;-75
2023/05/30 03:59:23;;;;;;;11.57;3.05;;;12.50;99.90;;;;;;4160469;28;20033;-76
2023/05/30 04:01:24;;;;;;;8.82;2.85;;;12.40;99.90;;;;;;4162388;28;20046;-74
2023/05/30 04:03:24;;;;;;;14.77;3.17;;;12.40;99.90;;;;;;4161070;28;20034;-75
2023/05/30 04:05:26;;;;;;;12.50;2.72;;;12.40;99.90;;;;;;4161357;28;20048;-76
2023/05/30 04:07:27;;;;;;;10.18;2.47;;;12.50;99.90;;;;;;4162205;28;20151;-75
2023/05/30 04:09:27;;;;;;;11.13;2.85;;;12.50;99.90;;;;;;4164460;28;20075;-76
2023/05/30 04:11:28;;;;;;;11.45;2.75;;;12.50;99.90;;;;;;4161197;28;20042;-75
2023/05/30 04:13:28;;;;;;;10.10;2.92;;;12.50;99.90;;;;;;4161951;28;20030;-75
2023/05/30 04:15:29;;;;;;;10.68;2.85;;;12.40;99.90;;;;;;4159530;28;20497;-75
2023/05/30 04:17:30;;;;;;;7.50;2.63;;;12.50;99.90;;;;;;4162544;28;20025;-75
2023/05/30 04:19:31;;;;;;;9.73;3.25;;;12.60;99.90;;;;;;4162862;28;20048;-75
2023/05/30 04:21:31;;;;;;;15.98;3.33;;;12.50;99.90;;;;;;4157416;28;20040;-75
2023/05/30 04:23:32;;;;;;;11.13;2.85;;;12.40;99.90;;;;;;4162285;28;20085;-75
2023/05/30 04:25:33;;;;;;;11.88;3.58;;;12.40;99.90;;;;;;4158731;28;20041;-76
2023/05/30 04:27:34;;;;;;;8.73;2.40;;;12.30;99.90;;;;;;4161578;28;20038;-75
2023/05/30 04:29:35;;;;;;;12.73;3.00;;;12.50;99.90;;;;;;4155922;28;20511;-76
2023/05/30 04:31:36;;;;;;;13.90;3.30;;;12.60;99.90;;;;;;4163060;28;20048;-70
2023/05/30 04:33:37;;;;;;;10.23;2.72;;;12.50;99.90;;;;;;4162072;28;20049;-75
2023/05/30 04:35:39;;;;;;;12.40;3.35;;;12.60;99.90;;;;;;4160935;28;20374;-75
2023/05/30 04:37:43;;;;;;;15.20;3.67;;;12.60;99.90;;;;;;4161746;28;20045;-76
2023/05/30 04:39:44;;;;;;;9.80;2.80;;;12.50;99.90;;;;;;4160826;28;20037;-77
2023/05/30 04:41:44;;;;;;;14.65;3.35;;;12.70;99.90;;;;;;4160793;28;20048;-76
2023/05/30 04:43:52;;;;;;;10.45;3.38;;;12.70;99.90;;;;;;4161162;28;20084;-75
2023/05/30 04:45:53;;;;;;;11.57;3.13;;;12.70;99.90;;;;;;4155905;28;20041;-76
2023/05/30 04:47:53;;;;;;;9.82;3.22;;;12.70;99.90;;;;;;4161432;28;20102;-76
2023/05/30 04:49:54;;;;;;;11.48;2.85;;;12.80;99.90;;;;;;4161756;28;20052;-75
2023/05/30 04:51:55;;;;;;;11.50;2.97;;;12.80;99.90;;;;;;4159205;28;20026;-77
2023/05/30 04:53:56;;;;;;;9.18;2.85;;;12.80;99.90;;;;;;4160156;28;20041;-75
2023/05/30 04:55:56;;;;;;;12.50;3.65;;;12.70;99.90;;;;;;4161205;28;20421;-77
2023/05/30 04:57:57;;;;;;;9.65;3.42;;;12.50;99.90;;;;;;4161610;28;20497;-76
2023/05/30 04:59:58;;;;;;;12.68;3.67;;;12.60;99.90;;;;;;4159840;28;20413;-76
2023/05/30 05:01:58;;;;;;;12.80;3.95;;;12.40;99.90;;;;;;4162556;28;20033;-75
2023/05/30 05:03:59;;;;;;;14.55;3.92;;;12.20;99.90;;;;;;4162688;28;20052;-76
2023/05/30 05:05:59;;;;;;;15.02;3.63;;;12.10;99.90;;;;;;4159878;28;20025;-77
2023/05/30 05:08:00;;;;;;;15.02;3.42;;;11.90;99.90;;;;;;4161344;28;20037;-76
2023/05/30 05:10:01;;;;;;;12.30;3.97;;;12.10;99.90;;;;;;4159686;28;20061;-76
2023/05/30 05:12:03;;;;;;;11.77;3.40;;;12.00;99.90;;;;;;4162185;28;20033;-76
2023/05/30 05:14:04;;;;;;;12.60;3.55;;;12.10;99.90;;;;;;4161364;28;20040;-76
2023/05/30 05:16:06;;;;;;;12.13;3.25;;;12.10;99.90;;;;;;4158535;28;20029;-75
2023/05/30 05:18:07;;;;;;;24.27;3.75;;;12.20;99.90;;;;;;4160550;28;20069;-76
2023/05/30 05:20:08;;;;;;;10.52;3.38;;;12.20;99.90;;;;;;4160778;28;20029;-78
2023/05/30 05:22:08;;;;;;;11.13;3.58;;;12.20;99.90;;;;;;4156414;28;20064;-71
2023/05/30 05:24:09;;;;;;;14.15;3.78;;;12.20;99.90;;;;;;4159428;28;20029;-74
2023/05/30 05:26:10;;;;;;;12.10;3.35;;;12.20;99.90;;;;;;4157804;28;20116;-76
2023/05/30 05:28:11;;;;;;;11.77;3.40;;;12.20;99.90;;;;;;4158006;28;20396;-75
2023/05/30 05:30:12;;;;;;;11.52;3.70;;;12.30;99.90;;;;;;4157536;28;20046;-75
2023/05/30 05:32:13;;;;;;;10.05;3.47;;;12.30;99.90;;;;;;4162731;28;20041;-76
2023/05/30 05:34:13;;;;;;;11.32;3.50;;;12.30;99.90;;;;;;4160849;28;20171;-76
2023/05/30 05:36:14;;;;;;;14.40;5.45;;;12.20;99.90;;;;;;4157290;28;20042;-76
2023/05/30 05:38:16;;;;;;;12.02;4.80;;;12.00;99.90;;;;;;4157579;28;20473;-76
2023/05/30 05:40:17;;;;;;;16.67;4.85;;;11.90;99.90;;;;;;4163646;28;20082;-76
2023/05/30 05:42:18;;;;;;;12.90;3.60;;;11.90;99.90;;;;;;4160581;28;20053;-75
2023/05/30 05:44:19;;;;;;;9.93;3.20;;;12.00;99.90;;;;;;4157510;28;20172;-75
2023/05/30 05:46:19;;;;;;;9.80;3.08;;;12.10;99.90;;;;;;4152026;28;20033;-75
2023/05/30 05:48:20;;;;;;;10.48;3.25;;;12.30;99.90;;;;;;4157764;28;20057;-75
2023/05/30 05:50:21;;;;;;;19.17;4.35;;;12.20;99.90;;;;;;4157814;28;20026;-73
2023/05/30 05:52:21;;;;;;;11.43;3.95;;;12.20;99.90;;;;;;4166350;28;20029;-72
2023/05/30 05:54:22;;;;;;;10.80;3.08;;;12.30;99.90;;;;;;4158629;28;20037;-74
2023/05/30 05:56:22;;;;;;;8.80;2.88;;;12.50;99.90;;;;;;4172984;28;20032;-75
2023/05/30 05:58:23;;;;;;;10.73;4.13;;;12.60;99.90;;;;;;4157109;28;20037;-76
2023/05/30 06:00:24;;;;;;;16.35;4.32;;;12.60;99.90;;;;;;4157859;28;20038;-75
2023/05/30 06:02:25;;;;;;;21.48;4.80;;;12.90;99.90;;;;;;4161730;28;20041;-75
2023/05/30 06:04:26;;;;;;;17.45;6.60;;;13.10;99.90;;;;;;4160365;28;20472;-76
2023/05/30 06:06:27;;;;;;;10.10;3.28;;;13.10;99.90;;;;;;4159269;28;20038;-75
2023/05/30 06:08:27;;;;;;;7.85;2.95;;;13.50;99.90;;;;;;4158239;28;20057;-73
2023/05/30 06:10:28;;;;;;;11.05;3.03;;;13.80;99.90;;;;;;4159441;28;20025;-75
2023/05/30 06:12:28;;;;;;;12.18;3.40;;;14.10;99.90;;;;;;4160568;28;20087;-75
2023/05/30 06:14:29;;;;;;;13.95;3.30;;;14.50;99.90;;;;;;4160066;28;20040;-75
2023/05/30 06:16:29;;;;;;;11.65;3.67;;;14.70;99.90;;;;;;4159778;28;20040;-73
2023/05/30 06:18:30;;;;;;;8.23;3.15;;;14.90;99.90;;;;;;4159426;28;20125;-74
2023/05/30 06:20:30;;;;;;;11.10;3.65;;;15.10;99.90;;;;;;4157950;28;20037;-74
2023/05/30 06:22:31;;;;;;;11.82;3.42;;;15.20;99.90;;;;;;4159486;28;20041;-74
2023/05/30 06:24:32;;;;;;;7.18;3.08;;;15.30;99.90;;;;;;4157923;28;20037;-74
2023/05/30 06:26:32;;;;;;;13.52;4.10;;;15.20;99.90;;;;;;4157508;28;20030;-74
2023/05/30 06:28:33;;;;;;;12.30;4.03;;;14.70;99.90;;;;;;4158669;28;20197;-74
2023/05/30 06:30:34;;;;;;;13.50;3.72;;;14.80;99.90;;;;;;4152286;28;20038;-73
2023/05/30 06:32:34;;;;;;;11.82;3.75;;;14.40;99.90;;;;;;4159126;28;20044;-73
2023/05/30 06:34:35;;;;;;;8.48;3.30;;;14.60;99.90;;;;;;4156808;28;20026;-73
2023/05/30 06:36:36;;;;;;;9.13;3.25;;;14.70;99.90;;;;;;4156699;28;20072;-74
2023/05/30 06:38:36;;;;;;;9.05;3.70;;;14.80;99.90;;;;;;4154762;28;20037;-74
2023/05/30 06:40:37;;;;;;;10.90;3.42;;;14.90;99.90;;;;;;4153501;28;20030;-73
2023/05/30 06:42:38;;;;;;;11.05;3.55;;;14.90;99.90;;;;;;4158548;28;20028;-73
2023/05/30 06:44:38;;;;;;;13.68;3.65;;;15.00;99.90;;;;;;4157883;28;20030;-73
2023/05/30 06:46:39;;;;;;;11.23;3.38;;;15.20;99.90;;;;;;4157710;28;20041;-74
2023/05/30 06:48:39;;;;;;;10.13;3.10;;;15.20;99.90;;;;;;4159033;28;20030;-74
2023/05/30 06:50:40;;;;;;;9.95;3.10;;;15.20;99.90;;;;;;4157673;28;20503;-73
2023/05/30 06:52:41;;;;;;;10.70;3.10;;;15.30;99.90;;;;;;4158758;28;20039;-74
2023/05/30 06:54:41;;;;;;;8.80;2.83;;;15.30;99.90;;;;;;4157758;28;20129;-73
2023/05/30 06:56:42;;;;;;;9.45;3.30;;;15.40;99.90;;;;;;4155968;28;20044;-74
2023/05/30 06:58:43;;;;;;;11.63;2.88;;;15.50;99.90;;;;;;4157507;28;20036;-74
2023/05/30 07:00:43;;;;;;;15.40;3.72;;;15.70;99.90;;;;;;4156763;28;20088;-74
2023/05/30 07:02:44;;;;;;;9.20;3.05;;;15.50;99.90;;;;;;4154671;28;20473;-74
2023/05/30 07:04:45;;;;;;;8.50;2.88;;;15.50;99.90;;;;;;4157222;28;20037;-73
2023/05/30 07:06:45;;;;;;;15.07;3.35;;;15.60;99.90;;;;;;4155935;28;20030;-72
2023/05/30 07:08:46;;;;;;;11.70;2.92;;;15.80;99.90;;;;;;4155836;28;20033;-73
2023/05/30 07:10:46;;;;;;;9.80;3.38;;;15.80;99.90;;;;;;4152613;28;20572;-73
2023/05/30 07:12:47;;;;;;;6.78;3.25;;;15.90;99.90;;;;;;4154941;28;20406;-73
2023/05/30 07:14:48;;;;;;;12.63;3.88;;;16.00;99.90;;;;;;4155054;28;20034;-73
2023/05/30 07:16:48;;;;;;;8.85;3.30;;;16.00;99.90;;;;;;4153402;28;20485;-73
2023/05/30 07:18:49;;;;;;;10.68;3.25;;;16.10;99.90;;;;;;4158248;28;20052;-73
2023/05/30 07:20:49;;;;;;;15.75;3.55;;;16.10;99.40;;;;;;4158721;28;20041;-73
2023/05/30 07:22:50;;;;;;;9.10;2.90;;;15.90;99.90;;;;;;4159277;28;20390;-73
2023/05/30 07:24:51;;;;;;;4.25;2.25;;;16.10;99.90;;;;;;4159715;28;20045;-72
2023/05/30 07:26:52;;;;;;;8.68;2.78;;;16.40;99.90;;;;;;4155161;28;20041;-72
2023/05/30 07:28:52;;;;;;;12.23;3.05;;;16.70;99.90;;;;;;4157867;28;20037;-69
2023/05/30 07:30:53;;;;;;;6.45;3.05;;;16.80;99.90;;;;;;4158359;28;20044;-71
2023/05/30 07:32:53;;;;;;;9.93;3.08;;;17.00;99.90;;;;;;4156974;28;20046;-71
2023/05/30 07:34:55;;;;;;;9.68;3.38;;;17.30;99.90;;;;;;4155157;28;20067;-71
2023/05/30 07:36:56;;;;;;;10.95;3.67;;;17.40;99.90;;;;;;4154881;28;20128;-73
2023/05/30 07:38:56;;;;;;;8.55;3.05;;;17.70;99.90;;;;;;4155705;28;20094;-72
2023/05/30 07:40:57;;;;;;;10.68;3.63;;;17.90;99.90;;;;;;4157855;28;20397;-72
2023/05/30 07:42:57;;;;;;;10.88;3.78;;;17.60;97.20;;;;;;4157340;28;20744;-72
2023/05/30 07:44:58;;;;;;;6.47;2.80;;;17.50;99.30;;;;;;4159811;28;20053;-72
2023/05/30 07:46:58;;;;;;;7.75;2.90;;;17.70;99.90;;;;;;4156430;28;20056;-73
2023/05/30 07:48:59;;;;;;;6.60;2.53;;;17.80;99.50;;;;;;4158766;28;20048;-72
2023/05/30 07:50:59;;;;;;;9.90;3.22;;;18.00;99.90;;;;;;4158007;28;20025;-73
2023/05/30 07:53:00;;;;;;;5.35;2.50;;;18.20;98.90;;;;;;4158561;28;20041;-70
2023/05/30 07:55:01;;;;;;;9.05;3.38;;;18.40;99.90;;;;;;4158188;28;20472;-71
2023/05/30 07:57:01;;;;;;;9.75;3.55;;;18.20;97.00;;;;;;4157441;28;20069;-72
2023/05/30 07:59:03;;;;;;;10.07;2.83;;;18.40;98.50;;;;;;4157873;28;20044;-72
2023/05/30 08:01:05;;;;;;;8.90;3.22;;;18.50;99.00;;;;;;4157598;28;20389;-72
2023/05/30 08:03:05;;;;;;;10.27;3.08;;;18.70;99.00;;;;;;4155826;28;20125;-72
2023/05/30 08:05:06;;;;;;;9.77;3.42;;;18.50;96.30;;;;;;4158785;28;20041;-73
2023/05/30 08:07:07;;;;;;;11.15;3.55;;;18.20;96.30;;;;;;4156895;28;20067;-72
2023/05/30 08:09:07;;;;;;;9.18;3.60;;;18.00;96.00;;;;;;4159022;28;20038;-72
2023/05/30 08:11:08;;;;;;;6.70;2.75;;;17.70;96.00;;;;;;4155422;28;20034;-72
2023/05/30 08:13:09;;;;;;;7.65;3.45;;;17.90;97.90;;;;;;4156639;28;20037;-72
2023/05/30 08:15:09;;;;;;;9.25;3.45;;;17.90;97.90;;;;;;4156089;28;20033;-73
2023/05/30 08:17:16;;;;;;;9.55;2.88;;;18.20;99.70;;;;;;4158955;28;20032;-73
2023/05/30 08:19:17;;;;;;;7.90;2.83;;;18.30;99.80;;;;;;4158470;28;20404;-72
2023/05/30 08:21:18;;;;;;;5.87;2.43;;;18.50;98.70;;;;;;4155631;28;20422;-73
2023/05/30 08:23:19;;;;;;;7.63;3.20;;;18.60;97.40;;;;;;4159310;28;20083;-72
2023/05/30 08:25:32;;;;;;;7.28;3.08;;;18.30;94.30;;;;;;4157585;28;20834;-72
2023/05/30 08:27:34;;;;;;;;;;;18.10;95.00;;;;;;4149584;28;20090;-72
2023/05/30 08:29:34;;;;;;;8.05;2.50;;;18.30;98.50;;;;;;4156178;28;19913;-72
2023/05/30 08:31:35;;;;;;;7.95;3.20;;;18.50;97.40;;;;;;4156913;28;20025;-72
2023/05/30 08:33:36;;;;;;;10.32;3.65;;;18.20;95.60;;;;;;4157908;28;20029;-73
2023/05/30 08:35:36;;;;;;;9.95;3.38;;;17.80;95.80;;;;;;4155746;28;20550;-73
2023/05/30 08:37:37;;;;;;;10.43;3.28;;;17.70;95.40;;;;;;4156164;28;20033;-72
2023/05/30 08:39:38;;;;;;;7.55;3.03;;;17.90;98.80;;;;;;4158238;28;20025;-72
2023/05/30 08:41:38;;;;;;;8.07;3.17;;;18.20;99.60;;;;;;4154744;28;20061;-72
2023/05/30 08:43:39;;;;;;;4.65;2.17;;;18.40;98.40;;;;;;4159313;28;20034;-72
2023/05/30 08:45:40;;;;;;;7.35;3.10;;;18.60;98.20;;;;;;4157938;28;20025;-72
2023/05/30 08:47:41;;;;;;;6.43;2.67;;;18.80;98.70;;;;;;4158449;28;20049;-72
2023/05/30 08:49:45;;;;;;;7.80;3.00;;;19.00;98.30;;;;;;4156996;28;20059;-72
2023/05/30 08:51:47;;;;;;;7.82;3.33;;;19.20;98.70;;;;;;4158396;28;20040;-71
2023/05/30 08:53:51;;;;;;;7.03;2.65;;;19.40;97.30;;;;;;4156798;28;20124;-72
2023/05/30 08:56:01;;;;;;;9.35;3.10;;;19.50;97.20;;;;;;4154744;28;20037;-71
2023/05/30 08:58:20;;;;;;;7.63;2.60;;;19.50;95.80;;;;;;4156072;28;20037;-70
2023/05/30 09:00:21;;;;;;;7.88;3.40;;;19.50;94.70;;;;;;4182165;28;20048;-72
2023/05/30 09:02:22;;;;;;;7.68;3.33;;;19.10;93.30;;;;;;4157556;28;20112;-71
2023/05/30 09:04:23;;;;;;;7.20;3.03;;;19.20;98.40;;;;;;4158323;28;20116;-71
2023/05/30 09:06:25;;;;;;;6.25;2.90;;;19.30;94.20;;;;;;4157203;28;20121;-70
2023/05/30 09:08:27;;;;;;;6.10;2.47;;;19.30;97.50;;;;;;4157128;28;20457;-71
2023/05/30 09:10:28;;;;;;;10.48;4.32;;;19.40;96.00;;;;;;4157312;28;20033;-71
2023/05/30 09:12:29;;;;;;;8.90;3.17;;;18.80;94.00;;;;;;4156317;28;20041;-71
2023/05/30 09:14:30;;;;;;;7.43;2.72;;;18.70;94.70;;;;;;4158663;28;20080;-71
2023/05/30 09:16:31;;;;;;;11.23;3.88;;;18.70;95.60;;;;;;4155825;28;20064;-72
2023/05/30 09:18:35;;;;;;;9.43;3.83;;;18.90;99.10;;;;;;4155706;28;20120;-70
2023/05/30 09:20:38;;;;;;;11.95;3.70;;;18.80;93.40;;;;;;4176039;28;20107;-71
2023/05/30 09:22:38;;;;;;;7.10;3.10;;;18.60;93.80;;;;;;4157173;28;20064;-71
2023/05/30 09:25:00;;;;;;;8.40;3.13;;;18.80;96.30;;;;;;4157693;28;20033;-71
2023/05/30 09:27:02;;;;;;;8.57;3.20;;;18.70;93.60;;;;;;4155878;28;20523;-71
2023/05/30 09:29:10;;;;;;;7.22;3.08;;;18.40;95.20;;;;;;4152988;28;20026;-71
2023/05/30 09:31:11;;;;;;;8.15;2.95;;;18.50;95.20;;;;;;4155014;28;20103;-71
2023/05/30 09:33:12;;;;;;;7.22;3.17;;;18.70;95.40;;;;;;4154960;28;20033;-71
2023/05/30 09:35:12;;;;;;;4.38;2.40;;;18.90;97.70;;;;;;4144559;28;20030;-72
2023/05/30 09:37:14;;;;;;;5.25;2.60;;;19.10;98.80;;;;;;4152362;28;20183;-71
2023/05/30 09:39:14;;;;;;;6.88;2.97;;;19.30;97.50;;;;;;4144221;28;20049;-71
2023/05/30 09:41:15;;;;;;;7.63;2.97;;;19.50;97.70;;;;;;4157205;28;20415;-71
2023/05/30 09:43:34;;;;;;;5.03;2.53;;;19.70;97.20;;;;;;4158364;28;20480;-71
2023/05/30 09:45:34;;;;;;;5.65;2.65;;;19.90;95.50;;;;;;4155396;28;20120;-70
2023/05/30 09:47:41;;;;;;;6.45;2.67;;;20.00;95.20;;;;;;4155175;28;20053;-71
2023/05/30 09:49:42;;;;;;;7.63;3.40;;;19.90;93.70;;;;;;4150875;28;20084;-71
2023/05/30 09:51:42;;;;;;;7.90;2.92;;;19.70;92.50;;;;;;4157361;28;20381;-71
2023/05/30 09:54:03;;;;;;;7.40;2.58;;;19.60;94.00;;;;;;4155754;28;20455;-71
2023/05/30 09:56:05;;;;;;;5.75;2.67;;;19.80;96.70;;;;;;4156989;28;20037;-71
2023/05/30 09:58:05;;;;;;;10.40;3.65;;;20.00;95.60;;;;;;4158063;28;20102;-72
2023/05/30 10:00:11;;;;;;;9.50;3.70;;;19.80;92.80;;;;;;4157363;28;20064;-71
2023/05/30 10:02:20;;;;;;;10.55;3.33;;;19.60;92.90;;;;;;4155386;28;20044;-71
2023/05/30 10:04:22;;;;;;;8.98;2.92;;;19.80;96.70;;;;;;4157255;28;20384;-71
2023/05/30 10:06:23;;;;;;;6.00;2.83;;;19.90;96.20;;;;;;4156287;28;20093;-71
2023/05/30 10:08:24;;;;;;;5.43;2.83;;;20.10;96.60;;;;;;4158365;28;20030;-71
2023/05/30 10:10:25;;;;;;;10.20;3.42;;;20.20;96.70;;;;;;4156989;28;20059;-71
2023/05/30 10:12:26;;;;;;;7.63;3.55;;;20.40;95.30;;;;;;4157021;28;20034;-71
2023/05/30 10:14:27;;;;;;;5.40;2.45;;;20.60;95.90;;;;;;4158632;28;20040;-70
2023/05/30 10:16:31;;;;;;;4.75;2.58;;;20.60;93.90;;;;;;4156602;28;20493;-71
2023/05/30 10:18:34;;;;;;;7.88;3.15;;;20.70;95.90;;;;;;4157042;28;20099;-71
2023/05/30 10:20:43;;;;;;;10.23;3.08;;;20.80;95.00;;;;;;4156432;28;20033;-71
2023/05/30 10:22:46;;;;;;;5.85;3.00;;;20.70;93.50;;;;;;4157725;28;20034;-71
2023/05/30 10:24:47;;;;;;;;;;;20.80;95.10;;;;;;4157551;28;20068;-71
2023/05/30 10:26:54;;;;;;;7.43;3.38;;;20.70;94.20;;;;;;4157146;28;19909;-71
2023/05/30 10:28:56;;;;;;;7.63;3.03;;;20.50;95.40;;;;;;4159434;28;20523;-71
2023/05/30 10:30:57;;;;;;;6.43;3.42;;;20.60;92.20;;;;;;4158627;28;20385;-71